createdAt,value
2018-05-03T00:01:57.469Z,6.47
2018-05-03T00:04:25.121Z,7.53
2018-05-03T00:06:52.830Z,10.57
2018-05-03T00:09:20.513Z,9.70
2018-05-03T00:11:48.213Z,12.13
2018-05-03T00:14:15.921Z,8.97
2018-05-03T00:16:43.598Z,12.80
2018-05-03T00:19:11.341Z,12.10
2018-05-03T00:21:39.020Z,14.67
2018-05-03T00:24:06.689Z,10.63
2018-05-03T00:26:34.409Z,11.70
2018-05-03T00:29:02.845Z,10.57
2018-05-03T00:31:30.543Z,11.60
2018-05-03T00:33:59.018Z,12.90
2018-05-03T00:36:27.485Z,11.70
2018-05-03T00:38:55.174Z,11.00
2018-05-03T00:41:23.642Z,16.23
2018-05-03T00:43:52.082Z,12.33
2018-05-03T00:46:19.759Z,12.67
2018-05-03T00:48:47.493Z,12.63
2018-05-03T00:51:15.157Z,13.23
2018-05-03T00:53:42.833Z,13.67
2018-05-03T00:56:10.533Z,10.43
2018-05-03T00:58:38.970Z,18.43
2018-05-03T01:01:06.685Z,11.97
2018-05-03T01:03:35.161Z,12.90
2018-05-03T01:06:03.630Z,15.30
2018-05-03T01:08:32.093Z,16.13
2018-05-03T01:10:59.793Z,18.70
2018-05-03T01:13:27.489Z,12.87
2018-05-03T01:15:55.157Z,13.33
2018-05-03T01:18:22.862Z,10.90
2018-05-03T01:20:51.321Z,9.30
2018-05-03T01:23:18.994Z,12.53
2018-05-03T01:25:47.465Z,15.00
2018-05-03T01:28:15.165Z,10.13
2018-05-03T01:30:42.845Z,12.57
2018-05-03T01:33:10.572Z,15.07
2018-05-03T01:35:50.850Z,9.73
2018-05-03T01:38:18.613Z,10.97
2018-05-03T01:40:46.293Z,19.17
2018-05-03T01:43:13.970Z,10.40
2018-05-03T01:45:41.681Z,11.03
2018-05-03T01:48:10.121Z,8.63
2018-05-03T01:50:37.817Z,12.07
2018-05-03T01:53:06.293Z,11.90
2018-05-03T01:55:34.737Z,16.37
2018-05-03T01:58:02.433Z,11.83
2018-05-03T02:00:30.904Z,8.77
2018-05-03T02:02:59.500Z,11.70
2018-05-03T02:05:27.966Z,13.23
2018-05-03T02:07:56.449Z,15.50
2018-05-03T02:10:24.941Z,11.60
2018-05-03T02:12:53.378Z,15.93
2018-05-03T02:15:21.109Z,9.10
2018-05-03T02:17:48.788Z,13.00
2018-05-03T02:20:16.461Z,12.87
2018-05-03T02:22:44.181Z,20.23
2018-05-03T02:25:11.849Z,14.43
2018-05-03T02:27:39.549Z,14.80
2018-05-03T02:30:07.250Z,17.30
2018-05-03T02:32:35.693Z,13.30
2018-05-03T02:35:03.453Z,11.13
2018-05-03T02:37:31.179Z,15.67
2018-05-03T02:39:59.078Z,11.47
2018-05-03T02:42:26.837Z,14.40
2018-05-03T02:44:54.702Z,12.90
2018-05-03T02:47:22.417Z,12.67
2018-05-03T02:49:50.091Z,13.53
2018-05-03T02:52:17.822Z,14.53
2018-05-03T02:54:46.265Z,13.80
2018-05-03T02:57:25.908Z,14.70
2018-05-03T03:00:05.550Z,16.00
2018-05-03T03:02:50.930Z,13.90
2018-05-03T03:05:36.249Z,11.20
2018-05-03T03:11:54.246Z,19.20
2018-05-03T03:14:39.656Z,9.90
2018-05-03T03:17:24.874Z,13.40
2018-05-03T03:20:16.117Z,12.10
2018-05-03T03:23:01.499Z,13.60
2018-05-03T03:26:11.554Z,13.03
2018-05-03T03:29:12.085Z,10.10
2018-05-03T03:31:57.493Z,15.03
2018-05-03T03:34:26.086Z,9.17
2018-05-03T03:37:16.213Z,9.97
2018-05-03T03:40:10.313Z,12.13
2018-05-03T03:45:47.633Z,14.87
2018-05-03T03:48:15.335Z,14.40
2018-05-03T03:50:43.009Z,14.17
2018-05-03T03:53:10.740Z,10.97
2018-05-03T03:55:39.223Z,14.23
2018-05-03T03:58:07.663Z,10.80
2018-05-03T04:00:35.357Z,9.17
2018-05-03T04:03:03.856Z,15.40
2018-05-03T04:05:32.329Z,12.97
2018-05-03T04:08:00.773Z,10.80
2018-05-03T04:10:28.476Z,13.00
2018-05-03T04:12:56.184Z,11.73
2018-05-03T04:15:23.858Z,11.90
2018-05-03T04:18:03.405Z,10.23
2018-05-03T04:20:46.919Z,11.80
2018-05-03T04:23:35.177Z,9.80
2018-05-03T04:26:04.737Z,9.17
2018-05-03T04:28:32.409Z,11.80
2018-05-03T04:31:00.109Z,8.80
2018-05-03T04:33:27.787Z,10.10
2018-05-03T04:35:55.479Z,11.13
2018-05-03T04:38:23.187Z,11.73
2018-05-03T04:40:50.865Z,11.13
2018-05-03T04:43:18.561Z,8.57
2018-05-03T04:45:46.367Z,8.70
2018-05-03T04:48:14.065Z,10.27
2018-05-03T04:50:42.513Z,9.63
2018-05-03T04:53:10.248Z,11.47
2018-05-03T04:55:37.926Z,10.97
2018-05-03T04:58:05.613Z,10.60
2018-05-03T05:00:33.318Z,10.37
2018-05-03T05:03:00.990Z,9.87
2018-05-03T05:05:28.707Z,10.07
2018-05-03T05:07:57.190Z,11.60
2018-05-03T05:10:25.756Z,9.43
2018-05-03T05:12:53.449Z,9.50
2018-05-03T05:15:22.081Z,11.47
2018-05-03T05:17:49.893Z,9.53
2018-05-03T05:20:18.529Z,10.70
2018-05-03T05:22:46.395Z,11.83
2018-05-03T05:25:14.162Z,11.50
2018-05-03T05:27:42.641Z,11.97
2018-05-03T05:30:10.508Z,10.00
2018-05-03T05:32:38.374Z,8.87
2018-05-03T05:35:06.817Z,8.50
2018-05-03T05:37:34.517Z,11.23
2018-05-03T05:40:02.219Z,11.63
2018-05-03T05:42:30.674Z,9.03
2018-05-03T05:44:58.389Z,11.73
2018-05-03T05:47:26.072Z,9.27
2018-05-03T05:49:53.775Z,11.03
2018-05-03T05:52:22.237Z,9.53
2018-05-03T05:54:49.948Z,11.63
2018-05-03T05:57:17.641Z,9.27
2018-05-03T05:59:45.356Z,12.43
2018-05-03T06:02:13.837Z,10.07
2018-05-03T06:04:42.281Z,12.50
2018-05-03T06:07:09.981Z,10.90
2018-05-03T06:09:37.689Z,14.37
2018-05-03T06:12:05.365Z,12.83
2018-05-03T06:14:33.074Z,9.07
2018-05-03T06:17:00.793Z,9.43
2018-05-03T06:19:28.635Z,11.60
2018-05-03T06:21:56.500Z,10.23
2018-05-03T06:24:24.186Z,7.40
2018-05-03T06:26:51.858Z,8.90
2018-05-03T06:29:20.337Z,8.53
2018-05-03T06:31:48.774Z,8.97
2018-05-03T06:34:16.468Z,7.87
2018-05-03T06:36:44.193Z,7.03
2018-05-03T06:39:11.869Z,6.40
2018-05-03T06:41:39.567Z,8.10
2018-05-03T06:44:08.041Z,6.70
2018-05-03T06:46:36.478Z,8.87
2018-05-03T06:49:04.177Z,6.93
2018-05-03T06:51:31.907Z,5.83
2018-05-03T06:53:59.601Z,7.93
2018-05-03T06:56:28.073Z,6.30
2018-05-03T06:58:55.775Z,6.27
2018-05-03T07:01:23.475Z,10.03
2018-05-03T07:03:51.143Z,7.63
2018-05-03T07:06:18.845Z,6.97
2018-05-03T07:08:47.370Z,7.30
2018-05-03T07:11:15.091Z,6.13
2018-05-03T07:13:42.830Z,8.30
2018-05-03T07:16:10.540Z,9.57
2018-05-03T07:18:38.336Z,14.27
2018-05-03T07:21:06.049Z,13.97
2018-05-03T07:23:33.725Z,15.23
2018-05-03T07:26:01.432Z,21.07
2018-05-03T07:28:29.150Z,20.20
2018-05-03T07:30:56.851Z,18.03
2018-05-03T07:33:24.570Z,13.93
2018-05-03T07:35:52.273Z,9.60
2018-05-03T07:38:19.965Z,9.57
2018-05-03T07:40:48.539Z,6.40
2018-05-03T07:43:17.021Z,6.30
2018-05-03T07:45:44.725Z,6.90
2018-05-03T07:48:12.397Z,7.10
2018-05-03T07:50:40.126Z,5.87
2018-05-03T07:53:08.659Z,5.80
2018-05-03T07:55:36.333Z,4.90
2018-05-03T07:58:04.036Z,7.97
2018-05-03T08:00:31.709Z,4.63
2018-05-03T08:02:59.401Z,5.27
2018-05-03T08:05:27.101Z,5.10
2018-05-03T08:07:55.542Z,5.67
2018-05-03T08:10:23.241Z,3.57
2018-05-03T08:12:51.705Z,3.93
2018-05-03T08:15:19.416Z,3.37
2018-05-03T08:17:47.104Z,6.87
2018-05-03T08:20:15.572Z,3.67
2018-05-03T08:22:43.261Z,3.50
2018-05-03T08:25:10.945Z,5.10
2018-05-03T08:27:38.673Z,4.23
2018-05-03T08:30:06.345Z,2.97
2018-05-03T08:32:34.025Z,5.10
2018-05-03T08:35:01.724Z,4.37
2018-05-03T08:37:29.401Z,2.30
2018-05-03T08:39:57.091Z,3.43
2018-05-03T08:42:24.798Z,2.63
2018-05-03T08:44:52.495Z,2.20
2018-05-03T08:47:20.203Z,2.90
2018-05-03T08:49:48.678Z,3.83
2018-05-03T08:52:17.121Z,3.57
2018-05-03T08:54:44.817Z,3.27
2018-05-03T08:57:13.301Z,3.00
2018-05-03T08:59:41.761Z,4.00
2018-05-03T09:02:09.437Z,3.13
2018-05-03T09:04:37.987Z,3.70
2018-05-03T09:07:05.686Z,2.13
2018-05-03T09:09:34.121Z,4.07
2018-05-03T09:12:01.823Z,4.17
2018-05-03T09:14:30.266Z,4.67
2018-05-03T09:16:57.937Z,3.13
2018-05-03T09:19:25.657Z,5.67
2018-05-03T09:21:53.325Z,5.77
2018-05-03T09:24:20.992Z,2.73
2018-05-03T09:26:48.771Z,3.83
2018-05-03T09:29:16.437Z,3.37
2018-05-03T09:31:44.106Z,5.23
2018-05-03T09:34:11.805Z,3.67
2018-05-03T09:36:40.238Z,3.40
2018-05-03T09:39:07.944Z,3.80
2018-05-03T09:41:35.697Z,3.87
2018-05-03T09:44:03.389Z,8.60
2018-05-03T09:46:31.070Z,4.17
2018-05-03T09:48:58.786Z,2.33
2018-05-03T09:51:27.257Z,1.97
2018-05-03T09:53:54.928Z,3.50
2018-05-03T09:56:23.407Z,2.50
2018-05-03T09:58:51.865Z,2.27
2018-05-03T10:01:19.581Z,3.03
2018-05-03T10:03:47.287Z,2.77
2018-05-03T10:06:14.965Z,3.03
2018-05-03T10:08:42.667Z,4.07
2018-05-03T10:11:10.433Z,2.63
2018-05-03T10:13:38.129Z,4.97
2018-05-03T10:16:05.797Z,3.40
2018-05-03T10:18:33.525Z,1.57
2018-05-03T10:21:01.212Z,1.50
2018-05-03T10:23:28.889Z,2.67
2018-05-03T10:25:56.597Z,2.63
2018-05-03T10:28:24.281Z,3.17
2018-05-03T10:30:51.972Z,4.53
2018-05-03T10:33:19.762Z,4.97
2018-05-03T10:35:48.243Z,9.10
2018-05-03T10:38:15.965Z,3.40
2018-05-03T10:40:43.689Z,4.90
2018-05-03T10:43:11.389Z,4.63
2018-05-03T10:45:39.081Z,5.67
2018-05-03T10:48:07.590Z,8.47
2018-05-03T10:50:35.265Z,4.87
2018-05-03T10:53:02.938Z,7.30
2018-05-03T10:55:30.642Z,5.53
2018-05-03T10:57:59.090Z,6.77
2018-05-03T11:00:26.793Z,8.17
2018-05-03T11:02:55.265Z,9.80
2018-05-03T11:05:23.711Z,4.70
2018-05-03T11:07:52.229Z,7.73
2018-05-03T11:10:20.704Z,5.67
2018-05-03T11:12:49.181Z,6.47
2018-05-03T11:15:16.853Z,5.47
2018-05-03T11:17:45.353Z,2.53
2018-05-03T11:20:13.050Z,8.80
2018-05-03T11:22:40.723Z,5.40
2018-05-03T11:25:08.445Z,4.67
2018-05-03T11:27:36.125Z,3.50
2018-05-03T11:30:03.836Z,4.37
2018-05-03T11:32:32.317Z,6.33
2018-05-03T11:35:00.759Z,3.87
2018-05-03T11:37:28.469Z,4.27
2018-05-03T11:39:56.941Z,4.17
2018-05-03T11:42:25.386Z,4.70
2018-05-03T11:44:53.086Z,7.57
2018-05-03T11:47:21.557Z,7.93
2018-05-03T11:49:50.020Z,6.03
2018-05-03T11:52:17.713Z,7.40
2018-05-03T11:54:46.213Z,3.33
2018-05-03T11:57:13.885Z,6.17
2018-05-03T11:59:41.553Z,3.47
2018-05-03T12:02:09.257Z,6.57
2018-05-03T12:04:36.929Z,3.93
2018-05-03T12:07:05.389Z,3.67
2018-05-03T12:09:33.173Z,7.47
2018-05-03T12:12:01.614Z,7.13
2018-05-03T12:14:29.340Z,4.90
2018-05-03T12:16:57.045Z,4.73
2018-05-03T12:19:24.764Z,7.27
2018-05-03T12:21:52.434Z,5.47
2018-05-03T12:24:20.207Z,7.40
2018-05-03T12:26:47.874Z,7.23
2018-05-03T12:29:15.570Z,11.30
2018-05-03T12:31:43.313Z,4.27
2018-05-03T12:34:10.985Z,8.57
2018-05-03T12:36:38.665Z,10.23
2018-05-03T12:39:07.146Z,6.63
2018-05-03T12:41:35.584Z,6.27
2018-05-03T12:44:03.288Z,5.27
2018-05-03T12:46:31.768Z,8.37
2018-05-03T12:49:00.205Z,9.07
2018-05-03T12:51:27.901Z,6.50
2018-05-03T12:53:56.418Z,4.87
2018-05-03T12:56:24.097Z,11.67
2018-05-03T12:58:51.794Z,7.07
2018-05-03T13:01:19.497Z,6.40
2018-05-03T13:03:47.190Z,6.40
2018-05-03T13:06:14.878Z,9.17
2018-05-03T13:08:42.602Z,11.07
2018-05-03T13:11:10.297Z,8.63
2018-05-03T13:13:37.985Z,13.17
2018-05-03T13:16:06.477Z,10.90
2018-05-03T13:18:34.963Z,11.43
2018-05-03T13:21:02.634Z,11.73
2018-05-03T13:23:30.576Z,6.23
2018-05-03T13:25:59.048Z,14.83
2018-05-03T13:28:27.498Z,10.23
2018-05-03T13:30:55.254Z,16.50
2018-05-03T13:33:22.934Z,8.00
2018-05-03T13:35:50.641Z,12.57
2018-05-03T13:38:18.345Z,13.70
2018-05-03T13:40:46.078Z,12.77
2018-05-03T13:43:13.899Z,11.83
2018-05-03T13:45:41.577Z,11.70
2018-05-03T13:48:10.026Z,9.83
2018-05-03T13:50:37.744Z,11.67
2018-05-03T13:53:05.448Z,9.97
2018-05-03T13:55:33.249Z,9.90
2018-05-03T13:58:00.893Z,8.47
2018-05-03T14:00:29.374Z,6.63
2018-05-03T14:02:57.840Z,8.07
2018-05-03T14:05:25.522Z,13.20
2018-05-03T14:07:53.993Z,12.37
2018-05-03T14:10:22.457Z,8.50
2018-05-03T14:12:50.141Z,12.03
2018-05-03T14:15:18.614Z,8.60
2018-05-03T14:17:47.093Z,9.20
2018-05-03T14:20:15.546Z,11.50
2018-05-03T14:22:43.313Z,15.27
2018-05-03T14:25:11.003Z,9.67
2018-05-03T14:27:39.447Z,11.97
2018-05-03T14:30:07.165Z,14.77
2018-05-03T14:32:34.841Z,12.40
2018-05-03T14:35:02.538Z,13.70
2018-05-03T14:37:30.247Z,17.07
2018-05-03T14:39:57.936Z,14.70
2018-05-03T14:42:25.645Z,13.87
2018-05-03T14:44:54.129Z,18.40
2018-05-03T14:47:22.643Z,24.50
2018-05-03T14:49:51.090Z,18.03
2018-05-03T14:52:19.565Z,18.60
2018-05-03T14:54:48.029Z,17.37
2018-05-03T14:57:15.875Z,19.97
2018-05-03T14:59:43.742Z,16.93
2018-05-03T15:02:11.445Z,19.13
2018-05-03T15:04:39.984Z,19.40
2018-05-03T15:07:07.685Z,18.90
2018-05-03T15:09:36.126Z,17.87
2018-05-03T15:12:03.991Z,16.90
2018-05-03T15:14:31.855Z,16.13
2018-05-03T15:16:59.721Z,14.73
2018-05-03T15:19:27.429Z,17.70
2018-05-03T15:21:56.070Z,15.40
2018-05-03T15:24:23.872Z,20.47
2018-05-03T15:26:52.414Z,15.70
2018-05-03T15:29:20.278Z,15.40
2018-05-03T15:31:48.040Z,18.77
2018-05-03T15:34:15.725Z,17.83
2018-05-03T15:36:43.442Z,17.50
2018-05-03T15:39:11.134Z,20.60
2018-05-03T15:41:38.949Z,17.63
2018-05-03T15:44:06.755Z,18.73
2018-05-03T15:46:34.458Z,17.73
2018-05-03T15:49:02.897Z,19.20
2018-05-03T15:51:30.606Z,19.17
2018-05-03T15:53:59.129Z,15.30
2018-05-03T15:56:26.802Z,15.30
2018-05-03T15:58:54.665Z,13.97
2018-05-03T16:01:22.340Z,15.37
2018-05-03T16:03:50.049Z,14.77
2018-05-03T16:06:17.753Z,14.10
2018-05-03T16:08:45.437Z,16.67
2018-05-03T16:11:13.137Z,13.67
2018-05-03T16:13:40.849Z,13.20
2018-05-03T16:16:08.549Z,8.13
2018-05-03T16:18:36.997Z,11.83
2018-05-03T16:21:04.744Z,9.53
2018-05-03T16:23:32.435Z,11.90
2018-05-03T16:26:00.894Z,13.93
2018-05-03T16:28:28.602Z,10.10
2018-05-03T16:30:56.277Z,7.80
2018-05-03T16:33:24.169Z,13.40
2018-05-03T16:35:52.039Z,15.33
2018-05-03T16:38:19.837Z,9.17
2018-05-03T16:40:48.356Z,12.10
2018-05-03T16:43:16.817Z,9.30
2018-05-03T16:45:44.525Z,10.80
2018-05-03T16:48:12.217Z,13.03
2018-05-03T16:50:40.717Z,11.67
2018-05-03T16:53:09.162Z,9.30
2018-05-03T16:55:36.841Z,8.30
2018-05-03T16:58:05.370Z,8.30
2018-05-03T17:00:33.073Z,8.83
2018-05-03T17:03:00.782Z,7.00
2018-05-03T17:05:28.513Z,8.53
2018-05-03T17:07:56.953Z,11.33
2018-05-03T17:10:24.661Z,9.83
2018-05-03T17:12:53.137Z,9.40
2018-05-03T17:15:22.246Z,12.23
2018-05-03T17:17:52.207Z,7.13
2018-05-03T17:20:19.921Z,9.10
2018-05-03T17:22:47.624Z,10.77
2018-05-03T17:25:15.388Z,10.37
2018-05-03T17:27:43.140Z,10.03
2018-05-03T17:30:10.822Z,11.80
2018-05-03T17:32:38.497Z,17.53
2018-05-03T17:35:06.358Z,12.40
2018-05-03T17:37:34.214Z,16.43
2018-05-03T17:40:02.071Z,19.67
2018-05-03T17:42:30.589Z,25.27
2018-05-03T17:44:59.050Z,15.10
2018-05-03T17:47:26.769Z,17.40
2018-05-03T17:49:54.469Z,11.60
2018-05-03T17:52:22.181Z,15.23
2018-05-03T17:54:49.865Z,22.00
2018-05-03T17:57:17.563Z,11.40
2018-05-03T17:59:46.122Z,32.20
2018-05-03T18:02:13.884Z,18.10
2018-05-03T18:04:41.612Z,13.60
2018-05-03T18:07:09.412Z,16.13
2018-05-03T18:09:37.174Z,13.80
2018-05-03T18:12:05.042Z,13.73
2018-05-03T18:14:32.758Z,20.13
2018-05-03T18:17:00.568Z,25.70
2018-05-03T18:19:28.432Z,17.10
2018-05-03T18:21:56.298Z,16.80
2018-05-03T18:24:23.995Z,16.50
2018-05-03T18:26:52.643Z,15.33
2018-05-03T18:29:20.325Z,13.03
2018-05-03T18:31:48.038Z,15.33
2018-05-03T18:34:15.868Z,14.97
2018-05-03T18:36:43.510Z,12.23
2018-05-03T18:39:11.214Z,17.23
2018-05-03T18:41:39.027Z,13.73
2018-05-03T18:44:06.747Z,14.60
2018-05-03T18:46:34.485Z,13.57
2018-05-03T18:49:02.189Z,12.70
2018-05-03T18:51:29.893Z,13.10
2018-05-03T18:53:57.581Z,13.00
2018-05-03T18:56:26.056Z,16.23
2018-05-03T18:58:54.495Z,12.83
2018-05-03T19:01:22.331Z,15.20
2018-05-03T19:03:50.807Z,15.07
2018-05-03T19:06:18.539Z,14.50
2018-05-03T19:08:47.017Z,16.43
2018-05-03T19:11:15.511Z,28.80
2018-05-03T19:13:43.221Z,19.77
2018-05-03T19:16:10.897Z,18.87
2018-05-03T19:18:38.629Z,16.77
2018-05-03T19:21:06.305Z,19.40
2018-05-03T19:23:34.065Z,10.00
2018-05-03T19:26:02.135Z,16.23
2018-05-03T19:28:29.805Z,10.87
2018-05-03T19:30:57.477Z,9.13
2018-05-03T19:33:25.189Z,5.53
2018-05-03T19:35:52.913Z,11.17
2018-05-03T19:38:20.745Z,11.60
2018-05-03T19:40:48.449Z,11.03
2018-05-03T19:43:16.889Z,10.40
2018-05-03T19:45:44.593Z,6.40
2018-05-03T19:48:13.065Z,8.67
2018-05-03T19:50:41.533Z,10.00
2018-05-03T19:53:09.213Z,8.03
2018-05-03T19:55:37.681Z,7.00
2018-05-03T19:58:05.409Z,4.57
2018-05-03T20:00:33.129Z,5.13
2018-05-03T20:03:00.862Z,3.27
2018-05-03T20:05:28.653Z,3.17
2018-05-03T20:07:57.101Z,2.50
2018-05-03T20:10:24.807Z,4.70
2018-05-03T20:12:52.490Z,3.57
2018-05-03T20:15:20.442Z,4.43
2018-05-03T20:17:48.129Z,4.70
2018-05-03T20:20:15.798Z,5.30
2018-05-03T20:22:43.499Z,4.00
2018-05-03T20:25:11.965Z,4.17
2018-05-03T20:27:39.662Z,4.77
2018-05-03T20:30:07.330Z,4.33
2018-05-03T20:32:35.062Z,3.50
2018-05-03T20:35:03.503Z,3.50
2018-05-03T20:37:31.208Z,4.13
2018-05-03T20:39:59.843Z,4.83
2018-05-03T20:42:27.606Z,2.50
2018-05-03T20:44:55.302Z,5.80
2018-05-03T20:47:23.769Z,3.53
2018-05-03T20:49:51.464Z,5.03
2018-05-03T20:52:19.141Z,3.77
2018-05-03T20:54:46.842Z,4.83
2018-05-03T20:57:14.535Z,3.30
2018-05-03T20:59:43.075Z,2.27
2018-05-03T21:02:10.779Z,4.43
2018-05-03T21:04:39.214Z,3.90
2018-05-03T21:07:07.028Z,3.07
2018-05-03T21:09:34.770Z,2.60
2018-05-03T21:12:02.614Z,2.33
2018-05-03T21:14:30.319Z,4.70
2018-05-03T21:16:58.894Z,5.33
2018-05-03T21:19:27.349Z,2.33
2018-05-03T21:21:55.028Z,1.27
2018-05-03T21:24:23.521Z,2.60
2018-05-03T21:26:51.953Z,4.57
2018-05-03T21:29:19.621Z,2.37
2018-05-03T21:31:47.326Z,3.23
2018-05-03T21:34:15.858Z,2.73
2018-05-03T21:36:43.582Z,2.57
2018-05-03T21:39:11.285Z,4.97
2018-05-03T21:41:38.984Z,2.13
2018-05-03T21:44:07.561Z,2.30
2018-05-03T21:46:36.026Z,2.77
2018-05-03T21:49:03.709Z,2.27
2018-05-03T21:51:32.182Z,3.20
2018-05-03T21:54:00.653Z,4.30
2018-05-03T21:56:28.325Z,1.70
2018-05-03T21:58:56.780Z,4.10
2018-05-03T22:01:24.477Z,2.70
2018-05-03T22:03:53.003Z,2.23
2018-05-03T22:06:20.645Z,2.00
2018-05-03T22:08:48.345Z,4.43
2018-05-03T22:11:16.041Z,6.03
2018-05-03T22:13:44.483Z,2.43
2018-05-03T22:16:12.345Z,5.93
2018-05-03T22:18:40.018Z,7.23
2018-05-03T22:21:07.762Z,6.23
2018-05-03T22:23:35.626Z,5.50
2018-05-03T22:26:03.332Z,6.00
2018-05-03T22:28:31.869Z,2.10
2018-05-03T22:30:59.734Z,5.07
2018-05-03T22:33:27.604Z,5.07
2018-05-03T22:35:56.694Z,3.80
2018-05-03T22:38:24.560Z,2.20
2018-05-03T22:40:52.284Z,4.73
2018-05-03T22:43:20.087Z,3.60
2018-05-03T22:45:47.785Z,3.93
2018-05-03T22:48:16.227Z,4.73
2018-05-03T22:50:44.093Z,2.87
2018-05-03T22:53:11.959Z,5.37
2018-05-03T22:55:39.655Z,3.07
2018-05-03T22:58:08.098Z,5.43
2018-05-03T23:00:35.805Z,3.03
2018-05-03T23:03:04.274Z,3.63
2018-05-03T23:05:32.823Z,4.03
2018-05-03T23:08:00.688Z,5.77
2018-05-03T23:10:28.357Z,5.03
2018-05-03T23:12:56.023Z,2.83
2018-05-03T23:15:23.721Z,3.27
2018-05-03T23:17:52.253Z,13.80
2018-05-03T23:20:20.120Z,7.90
2018-05-03T23:22:47.821Z,4.60
2018-05-03T23:25:16.289Z,2.53
2018-05-03T23:27:43.962Z,7.27
2018-05-03T23:30:12.605Z,2.27
2018-05-03T23:32:40.301Z,2.90
2018-05-03T23:35:08.740Z,3.07
2018-05-03T23:37:36.441Z,3.77
2018-05-03T23:40:04.890Z,6.37
2018-05-03T23:42:32.689Z,3.27
2018-05-03T23:45:01.159Z,5.03
2018-05-03T23:47:28.833Z,4.23
2018-05-03T23:49:57.294Z,3.30
2018-05-03T23:52:25.150Z,2.57
2018-05-03T23:54:53.718Z,2.40
2018-05-03T23:57:21.482Z,3.17
2018-05-03T23:59:49.206Z,6.97
